createdAt,value
2022-10-26T00:04:58.893Z,16.77
2022-10-26T00:10:22.140Z,15.83
2022-10-26T00:15:47.994Z,16.97
2022-10-26T00:21:12.514Z,15.48
2022-10-26T00:26:35.194Z,17.03
2022-10-26T00:31:58.402Z,17.30
2022-10-26T00:37:20.655Z,16.42
2022-10-26T00:42:42.805Z,15.80
2022-10-26T00:48:12.916Z,15.97
2022-10-26T00:53:36.357Z,16.33
2022-10-26T00:58:59.964Z,15.20
2022-10-26T01:04:23.787Z,16.77
2022-10-26T01:09:46.711Z,15.53
2022-10-26T01:15:10.055Z,17.55
2022-10-26T01:21:00.449Z,17.12
2022-10-26T01:26:33.763Z,16.37
2022-10-26T01:32:13.430Z,16.10
2022-10-26T01:37:42.933Z,16.10
2022-10-26T01:43:09.829Z,16.13
2022-10-26T01:48:35.633Z,16.07
2022-10-26T01:54:00.306Z,16.10
2022-10-26T01:59:30.004Z,17.73
2022-10-26T02:05:19.463Z,24.23
2022-10-26T02:11:05.939Z,24.47
2022-10-26T02:16:32.629Z,21.67
2022-10-26T02:21:59.528Z,17.63
2022-10-26T02:27:34.988Z,14.78
2022-10-26T02:33:01.548Z,16.55
2022-10-26T02:38:26.235Z,13.03
2022-10-26T02:43:52.505Z,12.95
2022-10-26T02:49:15.125Z,12.15
2022-10-26T02:54:47.925Z,14.00
2022-10-26T03:00:13.761Z,14.53
2022-10-26T03:05:42.499Z,12.87
2022-10-26T03:11:04.717Z,12.55
2022-10-26T03:16:27.077Z,11.18
2022-10-26T03:21:49.256Z,12.37
2022-10-26T03:27:11.404Z,12.40
2022-10-26T03:32:33.568Z,11.97
2022-10-26T03:37:55.824Z,15.43
2022-10-26T03:43:17.971Z,16.05
2022-10-26T03:48:40.150Z,12.30
2022-10-26T03:54:02.295Z,12.07
2022-10-26T03:59:24.481Z,12.93
2022-10-26T04:04:46.654Z,18.45
2022-10-26T04:10:08.838Z,15.10
2022-10-26T04:15:32.895Z,16.07
2022-10-26T04:20:55.200Z,15.27
2022-10-26T04:26:18.220Z,16.30
2022-10-26T04:37:03.839Z,21.95
2022-10-26T04:42:26.009Z,27.27
2022-10-26T04:47:48.226Z,32.10
2022-10-26T04:53:11.053Z,31.42
2022-10-26T04:58:33.963Z,31.10
2022-10-26T05:03:57.074Z,33.27
2022-10-26T05:09:19.306Z,27.47
2022-10-26T05:14:41.471Z,23.57
2022-10-26T05:20:05.279Z,25.63
2022-10-26T05:25:27.613Z,21.97
2022-10-26T05:30:51.318Z,26.57
2022-10-26T05:36:14.437Z,27.43
2022-10-26T05:41:37.347Z,19.35
2022-10-26T05:47:00.366Z,19.37
2022-10-26T05:52:22.600Z,18.17
2022-10-26T05:57:45.750Z,17.35
2022-10-26T06:03:28.010Z,17.50
2022-10-26T06:08:50.918Z,19.35
2022-10-26T06:14:13.482Z,16.10
2022-10-26T06:19:58.671Z,17.97
2022-10-26T06:25:25.919Z,13.18
2022-10-26T06:30:48.705Z,16.87
2022-10-26T06:36:30.940Z,13.28
2022-10-26T06:41:55.009Z,15.83
2022-10-26T06:47:29.741Z,16.87
2022-10-26T06:53:02.793Z,13.98
2022-10-26T06:58:29.410Z,13.95
2022-10-26T07:03:51.656Z,12.60
2022-10-26T07:09:13.806Z,11.30
2022-10-26T07:14:36.384Z,11.23
2022-10-26T07:19:58.535Z,11.50
2022-10-26T07:25:21.734Z,10.43
2022-10-26T07:30:45.507Z,9.45
2022-10-26T07:36:09.076Z,10.88
2022-10-26T07:41:31.526Z,10.83
2022-10-26T07:46:53.815Z,10.72
2022-10-26T07:52:16.534Z,17.23
2022-10-26T07:57:39.198Z,10.18
2022-10-26T08:03:02.817Z,11.37
2022-10-26T08:08:25.054Z,11.90
2022-10-26T08:13:47.261Z,11.68
2022-10-26T08:19:10.444Z,12.45
2022-10-26T08:24:33.091Z,13.18
2022-10-26T08:29:55.822Z,13.45
2022-10-26T08:35:19.108Z,11.75
2022-10-26T08:40:48.504Z,11.95
2022-10-26T08:46:15.575Z,12.07
2022-10-26T08:51:42.142Z,12.30
2022-10-26T08:57:07.560Z,12.10
2022-10-26T09:02:31.428Z,12.47
2022-10-26T09:08:13.040Z,11.50
2022-10-26T09:13:49.050Z,13.43
2022-10-26T09:19:35.798Z,13.10
2022-10-26T09:25:07.741Z,13.03
2022-10-26T09:30:37.352Z,12.88
2022-10-26T09:36:13.153Z,13.13
2022-10-26T09:42:06.145Z,14.03
2022-10-26T09:47:39.313Z,15.08
2022-10-26T09:53:03.221Z,13.60
2022-10-26T09:58:30.865Z,12.70
2022-10-26T10:03:54.495Z,13.43
2022-10-26T10:09:37.153Z,13.15
2022-10-26T10:15:11.467Z,12.88
2022-10-26T10:20:38.535Z,13.70
2022-10-26T10:26:05.782Z,13.60
2022-10-26T10:31:46.078Z,12.88
2022-10-26T10:37:08.763Z,14.85
2022-10-26T10:42:41.120Z,15.00
2022-10-26T10:48:14.685Z,15.72
2022-10-26T10:53:44.942Z,14.23
2022-10-26T10:59:24.371Z,14.15
2022-10-26T11:05:30.964Z,14.15
2022-10-26T11:11:13.377Z,14.10
2022-10-26T11:16:46.772Z,13.65
2022-10-26T11:22:27.270Z,15.20
2022-10-26T11:28:00.636Z,15.00
2022-10-26T11:33:39.689Z,15.63
2022-10-26T11:39:08.706Z,21.73
2022-10-26T11:44:54.236Z,16.82
2022-10-26T11:50:33.229Z,15.33
2022-10-26T11:56:04.799Z,17.13
2022-10-26T12:01:30.157Z,15.57
2022-10-26T12:06:53.562Z,16.87
2022-10-26T12:12:31.632Z,15.07
2022-10-26T12:18:54.902Z,14.33
2022-10-26T12:24:39.362Z,14.38
2022-10-26T12:30:22.459Z,16.02
2022-10-26T12:35:56.717Z,14.67
2022-10-26T12:41:37.441Z,16.15
2022-10-26T12:47:00.103Z,15.48
2022-10-26T12:52:27.753Z,13.68
2022-10-26T13:04:28.132Z,14.90
2022-10-26T13:09:55.709Z,13.47
2022-10-26T13:15:40.246Z,14.40
2022-10-26T13:21:24.475Z,13.87
2022-10-26T13:27:08.387Z,14.10
2022-10-26T13:32:33.331Z,13.63
2022-10-26T13:37:59.509Z,13.47
2022-10-26T13:43:28.691Z,16.47
2022-10-26T13:49:00.215Z,14.60
2022-10-26T13:54:46.532Z,14.63
2022-10-26T14:00:22.153Z,13.80
2022-10-26T14:05:46.368Z,13.22
2022-10-26T14:11:17.851Z,15.95
2022-10-26T14:16:44.562Z,16.77
2022-10-26T14:22:07.638Z,17.82
2022-10-26T14:27:34.791Z,19.27
2022-10-26T14:32:57.949Z,18.50
2022-10-26T14:38:27.770Z,14.80
2022-10-26T14:43:51.312Z,13.97
2022-10-26T14:49:19.155Z,16.65
2022-10-26T14:54:57.970Z,16.50
2022-10-26T15:00:30.783Z,14.40
2022-10-26T15:05:53.481Z,11.30
2022-10-26T15:11:22.027Z,12.60
2022-10-26T15:16:48.463Z,12.53
2022-10-26T15:22:11.617Z,17.53
2022-10-26T15:27:35.704Z,12.00
2022-10-26T15:32:59.313Z,11.07
2022-10-26T15:38:23.079Z,11.40
2022-10-26T15:43:45.332Z,12.50
2022-10-26T15:49:11.479Z,10.97
2022-10-26T15:54:34.152Z,14.75
2022-10-26T15:59:56.489Z,12.33
2022-10-26T16:05:20.015Z,12.80
2022-10-26T16:10:43.891Z,14.25
2022-10-26T16:16:06.438Z,14.40
2022-10-26T16:21:33.042Z,14.70
2022-10-26T16:26:55.355Z,15.63
2022-10-26T16:32:17.604Z,15.00
2022-10-26T16:37:41.354Z,14.57
2022-10-26T16:43:04.081Z,15.80
2022-10-26T16:48:27.138Z,17.85
2022-10-26T16:53:49.876Z,16.45
2022-10-26T16:59:12.563Z,17.35
2022-10-26T17:04:35.265Z,19.12
2022-10-26T17:09:57.521Z,20.33
2022-10-26T17:15:20.591Z,38.70
2022-10-26T17:26:11.532Z,20.92
2022-10-26T17:31:35.659Z,20.65
2022-10-26T17:36:57.806Z,22.62
2022-10-26T17:42:20.047Z,22.55
2022-10-26T17:47:42.575Z,24.67
2022-10-26T17:53:06.299Z,26.77
2022-10-26T17:58:29.533Z,28.42
2022-10-26T18:03:52.190Z,26.70
2022-10-26T18:09:20.450Z,25.80
2022-10-26T18:14:43.049Z,63.33
2022-10-26T18:20:05.516Z,28.45
2022-10-26T18:25:28.216Z,25.68
2022-10-26T18:30:50.366Z,24.87
2022-10-26T18:36:18.311Z,27.70
2022-10-26T18:41:41.066Z,21.85
2022-10-26T18:47:03.366Z,23.60
2022-10-26T18:52:28.312Z,22.82
2022-10-26T18:57:53.571Z,28.45
2022-10-26T19:03:17.413Z,23.30
2022-10-26T19:08:40.279Z,23.42
2022-10-26T19:14:03.218Z,24.65
2022-10-26T19:19:26.995Z,23.37
2022-10-26T19:24:49.634Z,24.30
2022-10-26T19:30:12.001Z,45.48
2022-10-26T19:41:06.838Z,23.67
2022-10-26T19:46:35.768Z,25.43
2022-10-26T19:51:58.322Z,44.30
2022-10-26T19:57:20.512Z,28.92
2022-10-26T20:02:42.735Z,49.42
2022-10-26T20:08:05.825Z,33.02
2022-10-26T20:13:29.787Z,33.35
2022-10-26T20:18:52.832Z,31.30
2022-10-26T20:24:25.221Z,30.60
2022-10-26T20:29:47.380Z,33.18
2022-10-26T20:35:10.172Z,43.45
2022-10-26T20:40:33.797Z,35.60
2022-10-26T20:51:56.794Z,31.00
2022-10-26T20:57:09.043Z,29.27
2022-10-26T21:02:31.249Z,54.17
2022-10-26T21:07:53.422Z,36.60
2022-10-26T21:13:15.643Z,28.43
2022-10-26T21:18:38.581Z,28.50
2022-10-26T21:24:00.742Z,28.02
2022-10-26T21:29:23.610Z,29.70
2022-10-26T21:34:46.312Z,29.48
2022-10-26T21:40:08.504Z,29.57
2022-10-26T21:45:31.351Z,29.45
2022-10-26T21:50:54.276Z,27.65
2022-10-26T21:56:23.280Z,27.98
2022-10-26T22:01:45.635Z,28.50
2022-10-26T22:07:08.078Z,27.62
2022-10-26T22:12:30.302Z,27.90
2022-10-26T22:17:54.237Z,26.93
2022-10-26T22:23:16.469Z,26.35
2022-10-26T22:28:42.648Z,26.33
2022-10-26T22:34:07.982Z,27.42
2022-10-26T22:39:30.865Z,26.43
2022-10-26T22:44:53.202Z,26.60
2022-10-26T22:50:15.953Z,24.90
2022-10-26T22:55:38.129Z,26.00
2022-10-26T23:01:00.323Z,26.40
2022-10-26T23:06:35.178Z,25.37
2022-10-26T23:11:57.739Z,24.90
2022-10-26T23:17:19.862Z,23.87
2022-10-26T23:22:42.022Z,24.73
2022-10-26T23:28:04.158Z,24.20
2022-10-26T23:33:26.665Z,23.90
2022-10-26T23:38:48.869Z,26.07
2022-10-26T23:44:11.221Z,26.03
2022-10-26T23:49:33.840Z,26.40
2022-10-26T23:54:56.002Z,26.40
